Flight Track Log - Related Links

Times and Time Zones

All times are in EST time to prevent confusion due to time zone crossing. See the N1560T flight status page for this flight to view local times or setup timezone preferences in your user account.

Time Position Orientation Groundspeed Altitude Reporting Facility
EST Latitude Longitude Course Direction KTS MPH feet Rate Location/Type
Fri 11:26:26 AM 43.9258 -91.2553 180° South 89 102 3,300  Level Minneapolis Center
Fri 11:27:28 AM 43.8858 -91.2269 153° Southeast 183 211 4,700 1,561 Climbing Minneapolis Center
Fri 11:28:29 AM 43.8339 -91.2261 179° South 180 207 6,500 1,659 Climbing Minneapolis Center
Fri 11:29:31 AM 43.7825 -91.2278 181° South 177 204 8,100 1,548 Climbing Minneapolis Center
Fri 11:30:33 AM 43.7300 -91.2275 180° South 181 208 9,700 1,463 Climbing Minneapolis Center
Fri 11:31:00 AM 43.5237 -91.2532 180° South  Level Estimated
Fri 11:31:34 AM 43.6808 -91.2267 179° South 182 209 11,100  Level Minneapolis Center
Fri 11:32:36 AM 43.6269 -91.2264 180° South 186 214 12,600 1,500 Climbing Minneapolis Center
Fri 11:33:38 AM 43.5731 -91.2264 180° South 185 213 14,200 1,366 Climbing Minneapolis Center
Fri 11:34:39 AM 43.5175 -91.2256 179° South 190 219 15,400 1,268 Climbing Minneapolis Center
Fri 11:35:41 AM 43.4572 -91.2250 180° South 204 235 16,800 1,210 Climbing Minneapolis Center
Fri 11:36:43 AM 43.4039 -91.2247 180° South 201 231 17,900 1,017 Climbing Minneapolis Center
Fri 11:37:39 AM 43.3533 -91.2269 182° South 201 231 18,800 872 Climbing Chicago Center
Fri 11:38:40 AM 43.2947 -91.2275 180° South 207 238 19,600 829 Climbing Chicago Center
Fri 11:39:42 AM 43.2361 -91.2267 179° South 210 242 20,500 823 Climbing Chicago Center
Fri 11:40:44 AM 43.1778 -91.2258 179° South 210 242 21,300 774 Climbing Chicago Center
Fri 11:41:46 AM 43.1069 -91.2253 180° South 211 243 22,100 677 Climbing Chicago Center
Fri 11:42:48 AM 43.0467 -91.2253 180° South 215 247 22,700 435 Climbing Chicago Center
Fri 11:43:50 AM 42.9861 -91.2247 180° South 218 251 23,000 146 Climbing Chicago Center
Fri 11:44:51 AM 42.9208 -91.2242 180° South 232 267 23,000  Level Chicago Center
Fri 11:45:53 AM 42.8539 -91.2236 180° South 239 275 23,000  Level Chicago Center
Fri 11:46:55 AM 42.7856 -91.2228 179° South 244 281 23,000  Level Chicago Center
Fri 11:47:57 AM 42.7175 -91.2222 180° South 244 281 23,000  Level Chicago Center
Fri 11:48:59 AM 42.6506 -91.2208 179° South 242 278 23,000  Level Chicago Center
Fri 11:50:00 AM 42.5711 -91.2219 181° South 237 273 23,000  Level Chicago Center
Fri 11:51:02 AM 42.5058 -91.2206 179° South 236 272 23,000  Level Chicago Center
Fri 11:52:04 AM 42.4417 -91.2203 180° South 232 267 23,000  Level Chicago Center
Fri 11:53:06 AM 42.3758 -91.2178 178° South 235 270 23,000  Level Chicago Center
Fri 11:54:07 AM 42.3092 -91.2197 181° South 239 275 23,000  Level Chicago Center
Fri 11:55:09 AM 42.2436 -91.2192 180° South 237 273 23,000  Level Chicago Center
Fri 11:56:11 AM 42.1647 -91.2194 180° South 238 274 23,000  Level Chicago Center
Fri 11:57:13 AM 42.0981 -91.2192 180° South 238 274 23,000  Level Chicago Center
Fri 11:58:14 AM 42.0339 -91.2181 179° South 232 267 23,000  Level Chicago Center
Fri 11:59:16 AM 41.9708 -91.2183 180° South 228 262 23,000  Level Chicago Center
Fri 12:00:18 PM 41.9089 -91.2172 179° South 224 258 23,000  Level Chicago Center
Fri 12:01:20 PM 41.8447 -91.2169 180° South 230 265 23,000  Level Chicago Center
Fri 12:02:22 PM 41.7803 -91.2169 180° South 233 268 23,000  Level Chicago Center
Fri 12:03:23 PM 41.7044 -91.2153 179° South 228 262 23,000  Level Chicago Center
Fri 12:04:25 PM 41.6394 -91.2158 180° South 233 268 23,000  Level Chicago Center
Fri 12:05:27 PM 41.5767 -91.2156 180° South 228 262 23,000  Level Chicago Center
Fri 12:06:29 PM 41.5147 -91.2139 179° South 230 265 23,000  Level Chicago Center
Fri 12:07:31 PM 41.4497 -91.2136 180° South 231 266 23,000  Level Chicago Center
Fri 12:08:32 PM 41.3733 -91.2128 180° South 230 265 23,000  Level Chicago Center
Fri 12:09:34 PM 41.3106 -91.2125 180° South 226 260 23,000  Level Chicago Center
Fri 12:10:36 PM 41.2475 -91.2125 180° South 228 262 23,000  Level Chicago Center
Fri 12:11:38 PM 41.1844 -91.2117 179° South 226 260 23,000  Level Chicago Center
Fri 12:12:40 PM 41.1219 -91.2108 179° South 226 260 23,000  Level Chicago Center
Fri 12:13:42 PM 41.0583 -91.1789 159° South 245 282 23,000  Level Chicago Center
Fri 12:14:43 PM 40.9969 -91.1444 157° South 243 280 23,000 -341 Level Chicago Center
Fri 12:15:45 PM 40.9186 -91.1033 158° South 250 288 22,300 -484 Descending Chicago Center
Fri 12:16:47 PM 40.8511 -91.0686 159° South 257 296 22,000 -145 Descending Chicago Center
Fri 12:17:49 PM 40.7844 -91.0525 170° South 249 287 22,000  Level Chicago Center
Fri 12:18:51 PM 40.7194 -91.0550 182° South 238 274 22,000  Level Chicago Center
Fri 12:19:52 PM 40.6567 -91.0556 180° South 231 266 22,000  Level Chicago Center
Fri 12:20:54 PM 40.5936 -91.0567 181° South 228 262 22,000  Level Chicago Center
Fri 12:21:56 PM 40.5192 -91.0569 180° South 224 258 22,000  Level Chicago Center
Fri 12:22:58 PM 40.4572 -91.0581 181° South 222 255 22,000  Level Chicago Center
Fri 12:23:59 PM 40.3939 -91.0575 180° South 226 260 22,000  Level Chicago Center
Fri 12:24:35 PM 40.3564 -91.0569 179° South 222 255 22,000  Level Kansas City Center
Fri 12:25:37 PM 40.2917 -91.0586 181° South 223 257 22,000  Level Kansas City Center
Fri 12:26:39 PM 40.2292 -91.0589 180° South 224 258 22,000  Level Kansas City Center
Fri 12:27:41 PM 40.1672 -91.0600 181° South 224 258 22,000  Level Kansas City Center
Fri 12:28:43 PM 40.1028 -91.0600 180° South 229 264 22,000  Level Kansas City Center
Fri 12:29:45 PM 40.0419 -91.0614 181° South 223 257 22,000  Level Kansas City Center
Fri 12:30:47 PM 39.9692 -91.0619 180° South 219 252 22,000  Level Kansas City Center
Fri 12:31:49 PM 39.9100 -91.0628 181° South 217 250 22,000  Level Kansas City Center
Fri 12:32:51 PM 39.8500 -91.0628 180° South 216 249 22,000  Level Kansas City Center
Fri 12:33:53 PM 39.7911 -91.0653 182° South 214 246 22,000  Level Kansas City Center
Fri 12:34:55 PM 39.7278 -91.0653 180° South 212 244 22,000  Level Kansas City Center
Fri 12:35:57 PM 39.6683 -91.0661 181° South 213 245 22,000  Level Kansas City Center
Fri 12:36:59 PM 39.6108 -91.0658 180° South 210 242 22,000  Level Kansas City Center
Fri 12:38:01 PM 39.5519 -91.0681 182° South 209 241 22,000  Level Kansas City Center
Fri 12:39:03 PM 39.4819 -91.0672 179° South 211 243 22,000  Level Kansas City Center
Fri 12:40:05 PM 39.4231 -91.0678 180° South 212 244 22,000  Level Kansas City Center
Fri 12:41:07 PM 39.3633 -91.0692 181° South 214 246 22,000  Level Kansas City Center
Fri 12:42:09 PM 39.3028 -91.0700 181° South 217 250 22,000  Level Kansas City Center
Fri 12:43:11 PM 39.2433 -91.0700 180° South 215 247 22,000  Level Kansas City Center
Fri 12:44:13 PM 39.1839 -91.0689 179° South 214 246 22,000  Level Kansas City Center
Fri 12:45:15 PM 39.1108 -91.0706 181° South 219 252 22,000  Level Kansas City Center
Fri 12:46:17 PM 39.0503 -91.0719 181° South 220 253 22,000  Level Kansas City Center
Fri 12:47:19 PM 38.9897 -91.0719 180° South 218 251 22,000  Level Kansas City Center
Fri 12:48:21 PM 38.9306 -91.0722 180° South 216 249 22,000  Level Kansas City Center
Fri 12:49:23 PM 38.8706 -91.0728 180° South 216 249 22,000  Level Kansas City Center
Fri 12:50:25 PM 38.8000 -91.0744 181° South 213 245 22,000  Level Kansas City Center
Fri 12:51:27 PM 38.7408 -91.0742 180° South 213 245 22,000  Level Kansas City Center
Fri 12:52:29 PM 38.6825 -91.0750 181° South 211 243 22,000  Level Kansas City Center
Fri 12:53:31 PM 38.6250 -91.0758 181° South 209 241 22,000  Level Kansas City Center
Fri 12:54:33 PM 38.5692 -91.0758 180° South 204 235 22,000  Level Kansas City Center
Fri 12:55:35 PM 38.5008 -91.0769 181° South 204 235 22,000  Level Kansas City Center
Fri 12:56:37 PM 38.4439 -91.0775 180° South 205 236 22,000  Level Kansas City Center
Fri 12:57:39 PM 38.3869 -91.0783 181° South 205 236 22,000  Level Kansas City Center
Fri 12:58:42 PM 38.3300 -91.0797 181° South 205 236 22,000  Level Kansas City Center
Fri 12:59:44 PM 38.2747 -91.0792 180° South 202 232 22,000  Level Kansas City Center
Fri 01:00:46 PM 38.2186 -91.0794 180° South 202 232 22,000  Level Kansas City Center
Fri 01:01:48 PM 38.1508 -91.0800 180° South 202 232 22,000  Level Kansas City Center
Fri 01:02:50 PM 38.0925 -91.0814 181° South 199 229 22,000  Level Kansas City Center
Fri 01:03:52 PM 38.0356 -91.0817 180° South 201 231 22,000  Level Kansas City Center
Fri 01:04:54 PM 37.9792 -91.0817 180° South 202 232 22,000  Level Kansas City Center
Fri 01:05:56 PM 37.9225 -91.0825 181° South 203 234 22,000  Level Kansas City Center
Fri 01:06:58 PM 37.8661 -91.0836 181° South 201 231 22,000  Level Kansas City Center
Fri 01:08:00 PM 37.8089 -91.0847 181° South 203 234 22,000  Level Kansas City Center
Fri 01:09:02 PM 37.7528 -91.0847 180° South 202 232 22,000  Level Kansas City Center
Fri 01:10:04 PM 37.6856 -91.0850 180° South 199 229 22,000  Level Kansas City Center
Fri 01:11:06 PM 37.6300 -91.0864 181° South 199 229 22,000  Level Kansas City Center
Fri 01:12:08 PM 37.5753 -91.0872 181° South 197 227 22,000  Level Kansas City Center
Fri 01:13:10 PM 37.5208 -91.0878 180° South 194 223 22,000  Level Kansas City Center
Fri 01:14:12 PM 37.4672 -91.0875 180° South 192 221 22,000  Level Kansas City Center
Fri 01:15:14 PM 37.4128 -91.0883 181° South 193 222 22,000  Level Kansas City Center
Fri 01:16:17 PM 37.3597 -91.0886 180° South 192 221 22,000  Level Kansas City Center
Fri 01:17:19 PM 37.3053 -91.0889 180° South 192 221 22,000  Level Kansas City Center
Fri 01:18:21 PM 37.2403 -91.0881 179° South 193 222 22,000  Level Kansas City Center
Fri 01:19:23 PM 37.1842 -91.0900 182° South 197 227 22,000  Level Kansas City Center
Fri 01:20:25 PM 37.1261 -91.0914 181° South 202 232 22,000  Level Kansas City Center
Fri 01:21:27 PM 37.0689 -91.0922 181° South 200 230 22,000  Level Kansas City Center
Fri 01:22:29 PM 37.0147 -91.0914 179° South 196 226 22,000  Level Kansas City Center
Fri 01:23:31 PM 36.9608 -91.0922 181° South 195 224 22,000  Level Kansas City Center
Fri 01:24:33 PM 36.9044 -91.0936 181° South 199 229 22,000  Level Kansas City Center
Fri 01:25:35 PM 36.8489 -91.0925 179° South 200 230 22,000  Level Kansas City Center
Fri 01:26:46 PM 36.7786 -91.0944 181° South 206 237 22,000  Level Memphis Center
Fri 01:27:48 PM 36.7225 -91.0953 181° South 204 235 22,000  Level Memphis Center
Fri 01:28:50 PM 36.6547 -91.0958 180° South 204 235 22,000  Level Memphis Center
Fri 01:29:52 PM 36.5981 -91.0956 180° South 204 235 22,000  Level Memphis Center
Fri 01:30:54 PM 36.5403 -91.0958 180° South 204 235 22,000  Level Memphis Center
Fri 01:31:56 PM 36.4822 -91.0969 181° South 207 238 22,000  Level Memphis Center
Fri 01:32:58 PM 36.4250 -91.0972 180° South 206 237 22,000  Level Memphis Center
Fri 01:34:00 PM 36.3556 -91.0981 181° South 207 238 22,000  Level Memphis Center
Fri 01:35:02 PM 36.2958 -91.0992 181° South 212 244 22,000  Level Memphis Center
Fri 01:36:04 PM 36.2378 -91.0992 180° South 211 243 22,000  Level Memphis Center
Fri 01:37:06 PM 36.1794 -91.0994 180° South 210 242 22,000  Level Memphis Center
Fri 01:38:09 PM 36.1236 -91.1006 181° South 205 236 22,000  Level Memphis Center
Fri 01:39:11 PM 36.0661 -91.1008 180° South 206 237 22,000  Level Memphis Center
Fri 01:40:13 PM 35.9961 -91.1017 181° South 207 238 22,000  Level Memphis Center
Fri 01:41:15 PM 35.9364 -91.1022 180° South 210 242 22,000  Level Memphis Center
Fri 01:42:17 PM 35.8778 -91.1033 181° South 211 243 22,000  Level Memphis Center
Fri 01:43:19 PM 35.8189 -91.1028 180° South 212 244 22,000  Level Memphis Center
Fri 01:44:21 PM 35.7592 -91.1036 181° South 212 244 22,000  Level Memphis Center
Fri 01:45:23 PM 35.7000 -91.1039 180° South 213 245 22,000  Level Memphis Center
Fri 01:46:25 PM 35.6342 -91.1050 181° South 214 246 22,000  Level Memphis Center
Fri 01:47:27 PM 35.5725 -91.1056 180° South 217 250 22,000  Level Memphis Center
Fri 01:48:29 PM 35.5122 -91.1067 181° South 216 249 22,000  Level Memphis Center
Fri 01:49:31 PM 35.4414 -91.1064 180° South 215 247 22,000  Level Memphis Center
Fri 01:50:33 PM 35.3803 -91.1078 181° South 214 246 22,000  Level Memphis Center
Fri 01:51:36 PM 35.3200 -91.1078 180° South 215 247 22,000  Level Memphis Center
Fri 01:52:38 PM 35.2597 -91.1083 180° South 215 247 22,000  Level Memphis Center
Fri 01:53:40 PM 35.1992 -91.1086 180° South 217 250 22,000  Level Memphis Center
Fri 01:54:42 PM 35.1378 -91.1092 180° South 217 250 22,000  Level Memphis Center
Fri 01:55:44 PM 35.0775 -91.1106 181° South 216 249 22,000  Level Memphis Center
Fri 01:56:46 PM 35.0081 -91.1111 180° South 213 245 22,000  Level Memphis Center
Fri 01:57:48 PM 34.9492 -91.1114 180° South 211 243 22,000  Level Memphis Center
Fri 01:58:52 PM 34.8894 -91.1122 181° South 212 244 22,000  Level Memphis Center
Fri 01:59:54 PM 34.8289 -91.1122 180° South 214 246 22,000  Level Memphis Center
Fri 02:00:56 PM 34.7694 -91.1128 180° South 213 245 22,000  Level Memphis Center
Fri 02:01:58 PM 34.7008 -91.1136 181° South 210 242 22,000  Level Memphis Center
Fri 02:03:00 PM 34.6419 -91.1150 181° South 210 242 22,000  Level Memphis Center
Fri 02:04:02 PM 34.5806 -91.1142 179° South 215 247 22,000  Level Memphis Center
Fri 02:05:04 PM 34.5189 -91.1147 180° South 218 251 22,000  Level Memphis Center
Fri 02:06:07 PM 34.4569 -91.1153 180° South 220 253 22,000  Level Memphis Center
Fri 02:07:09 PM 34.3950 -91.1161 181° South 220 253 22,000  Level Memphis Center
Fri 02:08:11 PM 34.3333 -91.1228 185° South 220 253 22,000  Level Memphis Center
Fri 02:09:13 PM 34.2608 -91.1225 180° South 221 254 22,000  Level Memphis Center
Fri 02:10:15 PM 34.1986 -91.1158 175° South 222 255 22,000  Level Memphis Center
Fri 02:11:17 PM 34.1381 -91.1092 175° South 219 252 22,000  Level Memphis Center
Fri 02:12:19 PM 34.0778 -91.1019 174° South 216 249 22,000  Level Memphis Center
Fri 02:13:21 PM 34.0169 -91.0975 177° South 217 250 22,000  Level Memphis Center
Fri 02:14:23 PM 33.9572 -91.0947 178° South 213 245 22,000  Level Memphis Center
Fri 02:15:25 PM 33.8997 -91.0975 182° South 207 238 22,000  Level Memphis Center
Fri 02:16:27 PM 33.8314 -91.0978 180° South 208 239 22,000  Level Memphis Center
Fri 02:17:29 PM 33.7728 -91.1003 182° South 212 244 22,000 48 Level Memphis Center
Fri 02:18:31 PM 33.7139 -91.1006 180° South 212 244 22,100  Climbing Memphis Center
Fri 02:19:32 PM 33.6544 -91.1006 180° South 214 246 22,000 -49 Descending Memphis Center
Fri 02:20:34 PM 33.5978 -91.1025 182° South 208 239 22,000  Level Memphis Center
Fri 02:21:36 PM 33.5358 -91.1022 180° South 216 249 22,000  Level Memphis Center
Fri 02:22:38 PM 33.4639 -91.1047 182° South 218 251 22,000  Level Memphis Center
Fri 02:23:40 PM 33.4050 -91.1056 181° South 215 247 22,000  Level Memphis Center
Fri 02:24:42 PM 33.3519 -91.1250 197° South 205 236 22,000  Level Memphis Center
Fri 02:25:44 PM 33.3042 -91.1556 208° Southwest 197 227 22,000  Level Memphis Center
Fri 02:26:46 PM 33.2447 -91.1703 192° South 220 253 22,000  Level Memphis Center
Fri 02:27:48 PM 33.1614 -91.1500 168° South 252 290 22,000  Level Memphis Center
Fri 02:28:50 PM 33.0942 -91.1447 176° South 249 287 22,000  Level Memphis Center
Fri 02:29:52 PM 33.0250 -91.1428 179° South 248 285 22,000  Level Memphis Center
Fri 02:30:54 PM 32.9547 -91.1425 180° South 253 291 22,000  Level Memphis Center
Fri 02:31:56 PM 32.8842 -91.1428 180° South 254 292 22,000  Level Memphis Center
Fri 02:32:58 PM 32.8017 -91.1428 180° South 250 288 22,000  Level Memphis Center
Fri 02:34:00 PM 32.7314 -91.1436 181° South 252 290 22,000  Level Memphis Center
Fri 02:35:02 PM 32.6647 -91.1436 180° South 247 284 22,000  Level Memphis Center
Fri 02:36:04 PM 32.5942 -91.1436 180° South 249 287 22,000  Level Memphis Center
Fri 02:37:06 PM 32.5225 -91.1442 180° South 254 292 22,000 -97 Level Memphis Center
Fri 02:38:08 PM 32.4342 -91.1450 180° South 260 299 21,800 -387 Descending Memphis Center
Fri 02:39:10 PM 32.3619 -91.1444 180° South 261 300 21,200 -524 Descending Memphis Center
Fri 02:39:51 PM 32.3253 -91.1442 180° South 245 282 20,900 -699 Descending Houston Center
Fri 02:40:53 PM 32.2439 -91.1450 180° South 244 281 20,000 -726 Descending Houston Center
Fri 02:41:55 PM 32.1758 -91.1464 181° South 245 282 19,400 -629 Descending Houston Center
Fri 02:42:57 PM 32.1072 -91.1450 179° South 247 284 18,700 -677 Descending Houston Center
Fri 02:43:59 PM 32.0364 -91.1456 180° South 253 291 18,000 -672 Descending Houston Center
Fri 02:45:02 PM 31.9667 -91.1464 181° South 252 290 17,300 -672 Descending Houston Center
Fri 02:46:04 PM 31.8978 -91.1467 180° South 250 288 16,600 -629 Descending Houston Center
Fri 02:47:06 PM 31.8172 -91.1464 180° South 244 281 16,000 -290 Descending Houston Center
Fri 02:48:08 PM 31.7539 -91.1464 180° South 230 265 16,000 -48 Level Houston Center
Fri 02:49:10 PM 31.6922 -91.1472 181° South 224 258 15,900 -435 Descending Houston Center
Fri 02:50:12 PM 31.6264 -91.1481 181° South 233 268 15,100 -774 Descending Houston Center
Fri 02:51:14 PM 31.5578 -91.1478 180° South 244 281 14,300 -774 Descending Houston Center
Fri 02:52:16 PM 31.4883 -91.1483 180° South 248 285 13,500 -864 Descending Houston Center
Fri 02:53:19 PM 31.4092 -91.1478 180° South 240 276 12,500 -864 Descending Houston Center
Fri 02:54:21 PM 31.3450 -91.1486 181° South 233 268 11,700 -774 Descending Houston Center
Fri 02:55:23 PM 31.2800 -91.1483 180° South 234 269 10,900 -823 Descending Houston Center
Fri 02:56:25 PM 31.2106 -91.1492 181° South 232 267 10,000 -823 Descending Houston Center
Fri 02:57:27 PM 31.1472 -91.1489 180° South 230 265 9,200 -774 Descending Houston Center
Fri 02:58:29 PM 31.0850 -91.1489 180° South 227 261 8,400 -768 Descending Houston Center
Fri 02:59:32 PM 31.0208 -91.1492 180° South 228 262 7,600 -768 Descending Houston Center
Fri 03:00:34 PM 30.9592 -91.1183 157° South 241 277 6,800 -823 Descending Houston Center
Fri 03:01:36 PM 30.9183 -91.0506 125° Southeast 242 278 5,900 -726 Descending Houston Center
Fri 03:02:38 PM 30.8853 -90.9922 123° Southeast 223 257 5,300 -581 Descending Houston Center
Fri 03:03:40 PM 30.8592 -90.9392 120° Southeast 197 227 4,700 -629 Descending Houston Center
Fri 03:04:42 PM 30.8328 -90.8861 120° Southeast 192 221 4,000 -677 Descending Houston Center
Fri 03:05:44 PM 30.7956 -90.8617 151° Southeast 183 211 3,300 -532 Descending Houston Center
Fri 03:06:46 PM 30.7597 -90.9006 223° Southwest 159 183 2,900 -333 Descending Houston Center
Fri 03:07:50 PM 30.7342 -90.9292 224° Southwest 151 174 2,600 -281 Descending Houston Center
Fri 03:09:00 PM 30.6801 -90.9800 219° Southwest  Level FlightAware Approximate
Fri 03:16:00 PM 30.5167 -91.1333 216° Southwest  Level FlightAware Approximate
Fri 03:17:00 PM 30.5329 -91.1499 216° Southwest  Level Estimated
Fri 03:18:00 PM 30.5329 -91.1499 216° Southwest  Level Estimated
Fri 03:19:00 PM 30.5329 -91.1499 216° Southwest  Level Estimated
Fri 03:20:00 PM 30.5329 -91.1499 216° Southwest  Level Estimated
Fri 03:21:00 PM 30.5329 -91.1499 216° Southwest  Level Estimated
Fri 03:22:00 PM 30.5329 -91.1499 216° Southwest  Level Estimated
Fri 03:23:00 PM 30.5329 -91.1499 216° Southwest  Level Estimated

Login

Don't have an account? Register now (free) for customized features, flight alerts, and more!